« Back
NWS Peachtree City, Ga » Text Product » ATL Terminal Aerodrome Forecast


Printer-friendly Version
Current Version              Previous Versions:   1  2  3  4  5  6  7  8  9  

Terminal Aerodrome Forecast

197
FTUS42 KFFC 301537 AAB
TAFATL
TAF AMD
KATL 301537Z 3016/3118 08008KT P6SM SCT030
     FM301700 07012G18KT P6SM SCT045
     FM310000 09007KT P6SM SCT120
     FM311400 06009KT P6SM FEW030=

USA.gov is the U.S. government's official web portal to all federal, state and local government web resources and services.